createdAt,value
2019-04-20T00:00:54.557Z,39.95
2019-04-20T00:03:29.807Z,34.65
2019-04-20T00:06:04.529Z,31.95
2019-04-20T00:08:44.258Z,27.00
2019-04-20T00:11:22.079Z,27.37
2019-04-20T00:16:25.185Z,26.00
2019-04-20T00:18:59.993Z,26.57
2019-04-20T00:21:43.113Z,33.40
2019-04-20T00:24:24.822Z,34.25
2019-04-20T00:27:15.853Z,30.32
2019-04-20T00:29:40.938Z,31.10
2019-04-20T00:32:06.600Z,33.83
2019-04-20T00:34:32.007Z,29.55
2019-04-20T00:37:08.804Z,30.48
2019-04-20T00:39:41.150Z,27.48
2019-04-20T00:42:54.878Z,22.25
2019-04-20T00:45:49.464Z,26.25
2019-04-20T00:48:22.689Z,27.13
2019-04-20T00:51:01.164Z,31.30
2019-04-20T00:53:30.407Z,28.62
2019-04-20T00:56:01.606Z,28.67
2019-04-20T00:58:48.003Z,28.57
2019-04-20T01:01:31.087Z,31.68
2019-04-20T01:04:09.103Z,30.43
2019-04-20T01:06:36.890Z,31.97
2019-04-20T01:09:03.302Z,184.70
2019-04-20T01:11:40.420Z,141.53
2019-04-20T01:14:12.482Z,87.85
2019-04-20T01:16:49.135Z,85.53
2019-04-20T01:19:19.298Z,114.30
2019-04-20T01:21:59.200Z,97.15
2019-04-20T01:24:30.887Z,178.10
2019-04-20T01:26:58.068Z,220.37
2019-04-20T01:29:46.966Z,209.15
2019-04-20T01:32:23.304Z,212.53
2019-04-20T01:35:02.338Z,721.12
2019-04-20T01:37:36.271Z,752.17
2019-04-20T01:39:59.242Z,901.95
2019-04-20T01:42:40.346Z,644.80
2019-04-20T01:45:22.419Z,788.58
2019-04-20T01:47:54.118Z,775.77
2019-04-20T01:50:27.782Z,726.17
2019-04-20T01:53:10.266Z,605.48
2019-04-20T01:56:40.318Z,412.40
2019-04-20T01:59:16.010Z,657.00
2019-04-20T02:01:37.638Z,607.40
2019-04-20T02:04:32.289Z,596.30
2019-04-20T02:07:12.026Z,519.67
2019-04-20T02:09:59.823Z,387.12
2019-04-20T02:12:30.457Z,82.53
2019-04-20T02:15:04.755Z,229.78
2019-04-20T02:17:40.826Z,232.37
2019-04-20T02:20:27.723Z,255.92
2019-04-20T02:23:07.711Z,176.45
2019-04-20T02:25:26.991Z,136.07
2019-04-20T02:28:20.326Z,179.60
2019-04-20T02:31:28.559Z,135.32
2019-04-20T02:39:33.001Z,37.75
2019-04-20T02:41:58.254Z,36.10
2019-04-20T02:44:33.934Z,56.02
2019-04-20T02:52:22.689Z,42.17
2019-04-20T02:57:39.923Z,43.17
2019-04-20T03:00:25.140Z,38.67
2019-04-20T03:02:28.561Z,34.38
2019-04-20T03:04:59.935Z,32.50
2019-04-20T03:07:32.931Z,23.60
2019-04-20T03:12:50.342Z,23.42
2019-04-20T03:15:22.484Z,19.32
2019-04-20T03:17:58.882Z,23.92
2019-04-20T03:20:36.372Z,19.77
2019-04-20T03:23:33.546Z,24.47
2019-04-20T03:25:58.385Z,21.70
2019-04-20T03:28:52.730Z,21.57
2019-04-20T03:34:51.506Z,21.50
2019-04-20T03:36:50.009Z,17.85
2019-04-20T03:39:17.684Z,21.82
2019-04-20T03:41:43.486Z,20.52
2019-04-20T03:44:19.184Z,22.87
2019-04-20T03:46:57.041Z,34.85
2019-04-20T03:49:48.353Z,90.17
2019-04-20T03:55:18.778Z,47.75
2019-04-20T03:57:54.307Z,51.73
2019-04-20T04:00:45.779Z,46.08
2019-04-20T04:03:57.067Z,53.02
2019-04-20T04:06:15.657Z,86.17
2019-04-20T04:08:42.728Z,117.17
2019-04-20T04:11:26.281Z,99.72
2019-04-20T04:13:45.906Z,155.75
2019-04-20T04:16:21.899Z,109.75
2019-04-20T04:19:07.532Z,113.37
2019-04-20T04:21:49.736Z,119.15
2019-04-20T04:24:22.612Z,79.17
2019-04-20T04:29:47.013Z,74.55
2019-04-20T04:32:49.621Z,84.15
2019-04-20T04:35:01.673Z,81.95
2019-04-20T04:37:38.579Z,82.62
2019-04-20T04:40:25.344Z,89.00
2019-04-20T04:42:56.435Z,89.30
2019-04-20T04:45:08.069Z,103.90
2019-04-20T04:47:34.916Z,97.12
2019-04-20T04:50:18.438Z,97.55
2019-04-20T04:52:57.338Z,78.25
2019-04-20T04:57:51.590Z,92.57
2019-04-20T05:03:06.950Z,80.00
2019-04-20T05:05:54.267Z,69.00
2019-04-20T05:08:19.975Z,62.45
2019-04-20T05:10:41.712Z,56.75
2019-04-20T05:13:26.779Z,47.20
2019-04-20T05:16:15.818Z,41.45
2019-04-20T05:19:05.047Z,50.30
2019-04-20T05:21:39.869Z,55.00
2019-04-20T05:24:42.692Z,49.67
2019-04-20T05:27:30.070Z,51.15
2019-04-20T05:32:18.027Z,32.63
2019-04-20T05:35:24.084Z,20.95
2019-04-20T05:38:13.208Z,19.17
2019-04-20T05:40:50.516Z,25.97
2019-04-20T05:43:38.312Z,24.98
2019-04-20T05:46:15.851Z,26.65
2019-04-20T05:48:50.509Z,31.87
2019-04-20T05:51:32.173Z,19.82
2019-04-20T05:54:02.770Z,21.62
2019-04-20T05:56:39.952Z,33.25
2019-04-20T05:59:12.720Z,28.70
2019-04-20T06:01:52.802Z,39.88
2019-04-20T06:04:42.651Z,34.55
2019-04-20T06:06:59.750Z,40.03
2019-04-20T06:09:34.295Z,37.88
2019-04-20T06:14:52.030Z,20.27
2019-04-20T06:17:37.351Z,14.83
2019-04-20T06:20:11.534Z,16.48
2019-04-20T06:22:58.116Z,15.48
2019-04-20T06:25:45.663Z,16.50
2019-04-20T06:28:02.324Z,17.27
2019-04-20T06:30:43.311Z,18.17
2019-04-20T06:36:33.856Z,18.65
2019-04-20T06:39:08.412Z,15.75
2019-04-20T06:42:08.111Z,16.35
2019-04-20T06:44:35.713Z,28.10
2019-04-20T06:49:51.354Z,16.07
2019-04-20T06:52:25.905Z,18.25
2019-04-20T06:54:54.078Z,14.07
2019-04-20T06:57:31.040Z,11.15
2019-04-20T07:00:14.142Z,13.15
2019-04-20T07:02:41.233Z,14.23
2019-04-20T07:05:22.526Z,13.25
2019-04-20T07:08:16.873Z,12.95
2019-04-20T07:10:38.082Z,13.38
2019-04-20T07:12:59.799Z,10.18
2019-04-20T07:15:34.110Z,10.10
2019-04-20T07:18:09.508Z,11.88
2019-04-20T07:21:07.157Z,12.95
2019-04-20T07:23:42.692Z,16.20
2019-04-20T07:26:16.963Z,17.80
2019-04-20T07:28:52.782Z,12.10
2019-04-20T07:31:24.772Z,11.97
2019-04-20T07:36:40.458Z,13.30
2019-04-20T07:39:13.266Z,12.73
2019-04-20T07:41:47.871Z,10.65
2019-04-20T07:49:22.532Z,19.02
2019-04-20T07:51:35.738Z,14.35
2019-04-20T07:54:33.317Z,16.93
2019-04-20T07:56:54.491Z,12.10
2019-04-20T08:02:23.503Z,10.03
2019-04-20T08:04:47.072Z,11.43
2019-04-20T08:07:07.425Z,11.40
2019-04-20T08:09:44.267Z,10.70
2019-04-20T08:12:51.589Z,12.85
2019-04-20T08:15:25.868Z,14.43
2019-04-20T08:17:51.001Z,11.25
2019-04-20T08:22:56.913Z,11.33
2019-04-20T08:25:14.115Z,10.03
2019-04-20T08:27:52.835Z,15.88
2019-04-20T08:30:41.315Z,12.30
2019-04-20T08:33:18.017Z,11.80
2019-04-20T08:36:01.254Z,112.05
2019-04-20T08:40:54.950Z,15.28
2019-04-20T08:43:43.644Z,19.73
2019-04-20T08:46:03.168Z,17.12
2019-04-20T08:48:38.590Z,16.45
2019-04-20T08:51:07.038Z,12.82
2019-04-20T08:53:44.756Z,18.85
2019-04-20T08:56:22.042Z,15.00
2019-04-20T08:58:43.464Z,15.98
2019-04-20T09:01:20.030Z,10.45
2019-04-20T09:03:57.929Z,10.43
2019-04-20T09:06:32.323Z,8.83
2019-04-20T09:09:07.845Z,10.95
2019-04-20T09:11:45.235Z,15.72
2019-04-20T09:14:00.060Z,31.15
2019-04-20T09:16:35.709Z,13.05
2019-04-20T09:19:07.018Z,9.70
2019-04-20T09:21:39.114Z,22.00
2019-04-20T09:24:32.982Z,8.90
2019-04-20T09:26:51.498Z,10.70
2019-04-20T09:29:23.316Z,9.25
2019-04-20T09:32:04.518Z,24.72
2019-04-20T09:34:42.659Z,11.85
2019-04-20T09:37:16.791Z,8.50
2019-04-20T09:39:32.641Z,16.23
2019-04-20T09:42:01.520Z,8.50
2019-04-20T09:44:38.433Z,6.03
2019-04-20T09:47:05.074Z,13.38
2019-04-20T09:49:46.266Z,16.05
2019-04-20T09:52:21.266Z,13.15
2019-04-20T09:54:54.865Z,7.47
2019-04-20T09:57:30.568Z,10.98
2019-04-20T09:59:58.669Z,9.28
2019-04-20T10:02:23.213Z,8.35
2019-04-20T10:04:47.338Z,13.83
2019-04-20T10:07:21.664Z,14.43
2019-04-20T10:09:50.349Z,6.35
2019-04-20T10:12:21.880Z,6.85
2019-04-20T10:14:53.235Z,10.15
2019-04-20T10:19:54.014Z,8.15
2019-04-20T10:22:24.557Z,14.18
2019-04-20T10:24:55.593Z,10.63
2019-04-20T10:27:26.819Z,7.75
2019-04-20T10:29:58.449Z,4.22
2019-04-20T10:32:36.298Z,9.50
2019-04-20T10:35:00.594Z,13.50
2019-04-20T10:37:33.652Z,7.67
2019-04-20T10:40:04.857Z,10.23
2019-04-20T10:45:05.865Z,4.00
2019-04-20T10:47:37.135Z,8.48
2019-04-20T10:52:38.131Z,8.28
2019-04-20T10:55:08.562Z,8.38
2019-04-20T10:57:39.676Z,24.00
2019-04-20T11:00:10.623Z,8.38
2019-04-20T11:02:44.193Z,7.17
2019-04-20T11:05:12.837Z,12.00
2019-04-20T11:07:44.325Z,11.90
2019-04-20T11:10:21.627Z,8.80
2019-04-20T11:12:48.410Z,5.12
2019-04-20T11:17:49.103Z,12.93
2019-04-20T11:20:19.394Z,6.47
2019-04-20T11:22:50.541Z,17.65
2019-04-20T11:25:22.078Z,7.03
2019-04-20T11:27:52.337Z,33.53
2019-04-20T11:30:22.823Z,8.18
2019-04-20T11:32:53.964Z,3.50
2019-04-20T11:37:55.437Z,6.33
2019-04-20T11:40:26.704Z,6.65
2019-04-20T11:42:57.528Z,3.62
2019-04-20T11:45:28.798Z,5.47
2019-04-20T11:47:59.192Z,12.43
2019-04-20T11:50:29.723Z,3.73
2019-04-20T11:53:01.438Z,9.53
2019-04-20T11:55:32.024Z,16.07
2019-04-20T11:58:02.085Z,14.53
2019-04-20T12:00:53.882Z,11.05
2019-04-20T12:03:24.800Z,5.33
2019-04-20T12:05:53.684Z,25.52
2019-04-20T12:08:25.045Z,4.42
2019-04-20T12:11:01.606Z,11.10
2019-04-20T12:13:31.033Z,6.03
2019-04-20T12:16:01.628Z,8.33
2019-04-20T12:18:33.699Z,11.28
2019-04-20T12:21:05.026Z,6.60
2019-04-20T12:23:36.227Z,43.20
2019-04-20T12:28:38.126Z,6.73
2019-04-20T12:31:13.714Z,5.45
2019-04-20T12:33:44.343Z,8.00
2019-04-20T12:36:16.367Z,30.00
2019-04-20T12:38:53.220Z,4.67
2019-04-20T12:41:35.664Z,4.92
2019-04-20T12:43:57.391Z,4.28
2019-04-20T12:46:28.201Z,8.98
2019-04-20T12:48:59.701Z,16.35
2019-04-20T12:51:33.844Z,7.22
2019-04-20T12:54:04.581Z,9.05
2019-04-20T12:56:35.107Z,29.32
2019-04-20T12:59:05.842Z,7.37
2019-04-20T13:01:37.312Z,5.50
2019-04-20T13:04:09.322Z,4.15
2019-04-20T13:06:40.880Z,9.90
2019-04-20T13:09:12.748Z,3.75
2019-04-20T13:11:55.521Z,6.53
2019-04-20T13:14:52.704Z,7.85
2019-04-20T13:17:24.053Z,12.23
2019-04-20T13:22:37.451Z,7.80
2019-04-20T13:25:10.812Z,13.65
2019-04-20T13:27:47.041Z,8.18
2019-04-20T13:30:19.900Z,5.85
2019-04-20T13:32:51.984Z,18.80
2019-04-20T13:35:28.098Z,5.78
2019-04-20T13:38:11.963Z,3.92
2019-04-20T13:40:43.945Z,4.17
2019-04-20T13:43:17.212Z,4.12
2019-04-20T13:45:48.973Z,4.37
2019-04-20T13:48:21.752Z,4.70
2019-04-20T13:50:56.043Z,11.45
2019-04-20T13:53:28.008Z,7.55
2019-04-20T13:56:01.409Z,7.60
2019-04-20T13:58:49.903Z,4.47
2019-04-20T14:01:22.959Z,5.55
2019-04-20T14:04:12.878Z,6.60
2019-04-20T14:06:45.666Z,12.55
2019-04-20T14:09:19.348Z,5.72
2019-04-20T14:11:51.749Z,4.78
2019-04-20T14:14:25.466Z,6.00
2019-04-20T14:16:57.243Z,9.48
2019-04-20T14:19:27.362Z,6.08
2019-04-20T14:21:59.849Z,6.28
2019-04-20T14:24:30.844Z,14.15
2019-04-20T14:27:03.352Z,6.55
2019-04-20T14:29:34.822Z,5.78
2019-04-20T14:32:07.189Z,4.85
2019-04-20T14:34:42.863Z,7.25
2019-04-20T14:37:15.064Z,4.67
2019-04-20T14:39:46.175Z,7.87
2019-04-20T14:42:27.914Z,7.28
2019-04-20T14:44:52.078Z,11.43
2019-04-20T14:50:03.402Z,11.73
2019-04-20T14:52:35.456Z,9.10
2019-04-20T14:55:08.557Z,16.75
2019-04-20T14:57:41.490Z,13.35
2019-04-20T15:00:29.934Z,12.07
2019-04-20T15:03:05.799Z,13.08
2019-04-20T15:05:37.099Z,12.98
2019-04-20T15:08:08.944Z,15.78
2019-04-20T15:13:11.284Z,16.70
2019-04-20T15:15:41.497Z,8.00
2019-04-20T15:18:15.554Z,7.55
2019-04-20T15:20:47.782Z,14.95
2019-04-20T15:23:23.644Z,12.35
2019-04-20T15:25:54.808Z,15.55
2019-04-20T15:28:30.365Z,13.25
2019-04-20T15:31:02.370Z,18.32
2019-04-20T15:33:34.776Z,27.42
2019-04-20T15:36:06.768Z,12.65
2019-04-20T15:41:16.729Z,16.23
2019-04-20T15:43:46.685Z,32.85
2019-04-20T15:46:17.256Z,41.77
2019-04-20T15:48:48.115Z,11.63
2019-04-20T15:51:19.416Z,14.40
2019-04-20T15:53:53.534Z,15.45
2019-04-20T15:56:24.867Z,35.98
2019-04-20T15:58:56.606Z,11.12
2019-04-20T16:01:28.602Z,12.68
2019-04-20T16:04:01.504Z,17.42
2019-04-20T16:06:32.876Z,17.35
2019-04-20T16:09:06.043Z,11.73
2019-04-20T16:11:39.119Z,24.25
2019-04-20T16:14:09.612Z,12.80
2019-04-20T16:16:40.357Z,14.47
2019-04-20T16:19:25.666Z,10.80
2019-04-20T16:21:43.822Z,46.77
2019-04-20T16:24:16.993Z,22.07
2019-04-20T16:26:53.720Z,15.13
2019-04-20T16:29:25.872Z,19.07
2019-04-20T16:34:36.678Z,20.50
2019-04-20T16:37:10.566Z,20.05
2019-04-20T16:39:42.770Z,14.23
2019-04-20T16:44:51.787Z,17.17
2019-04-20T16:47:24.089Z,14.10
2019-04-20T16:49:57.110Z,14.47
2019-04-20T16:52:34.723Z,8.73
2019-04-20T16:55:08.239Z,14.80
2019-04-20T16:57:44.643Z,27.25
2019-04-20T17:00:19.834Z,60.63
2019-04-20T17:02:54.321Z,34.15
2019-04-20T17:05:25.844Z,12.85
2019-04-20T17:07:57.922Z,8.03
2019-04-20T17:10:28.862Z,10.10
2019-04-20T17:13:01.804Z,9.83
2019-04-20T17:15:43.447Z,13.83
2019-04-20T17:18:23.454Z,13.00
2019-04-20T17:20:50.600Z,13.48
2019-04-20T17:23:43.936Z,14.25
2019-04-20T17:26:18.846Z,6.92
2019-04-20T17:29:10.716Z,10.45
2019-04-20T17:35:01.817Z,12.95
2019-04-20T17:37:24.708Z,16.40
2019-04-20T17:40:19.186Z,18.50
2019-04-20T17:42:41.652Z,13.93
2019-04-20T17:45:08.630Z,12.35
2019-04-20T17:47:50.282Z,32.70
2019-04-20T17:50:25.550Z,13.53
2019-04-20T17:52:59.369Z,11.60
2019-04-20T17:55:41.002Z,24.32
2019-04-20T17:58:12.072Z,16.48
2019-04-20T18:00:52.919Z,15.30
2019-04-20T18:03:58.138Z,16.62
2019-04-20T18:06:21.569Z,16.50
2019-04-20T18:08:49.552Z,22.02
2019-04-20T18:11:14.443Z,14.93
2019-04-20T18:13:39.726Z,18.70
2019-04-20T18:16:39.439Z,146.60
2019-04-20T18:19:02.026Z,47.45
2019-04-20T18:21:28.743Z,27.58
2019-04-20T18:24:06.190Z,21.12
2019-04-20T18:26:51.934Z,18.23
2019-04-20T18:29:26.800Z,15.10
2019-04-20T18:31:44.290Z,10.32
2019-04-20T18:34:25.204Z,15.63
2019-04-20T18:36:54.606Z,13.30
2019-04-20T18:39:37.466Z,22.15
2019-04-20T18:44:46.203Z,16.02
2019-04-20T18:47:23.654Z,11.93
2019-04-20T18:49:47.559Z,9.48
2019-04-20T18:52:09.423Z,13.05
2019-04-20T18:54:48.433Z,11.12
2019-04-20T18:57:23.258Z,11.53
2019-04-20T18:59:54.639Z,11.18
2019-04-20T19:02:31.183Z,12.63
2019-04-20T19:05:01.546Z,10.45
2019-04-20T19:07:41.439Z,13.55
2019-04-20T19:10:19.555Z,12.15
2019-04-20T19:13:01.542Z,14.43
2019-04-20T19:15:56.638Z,11.68
2019-04-20T19:18:27.616Z,11.55
2019-04-20T19:20:50.642Z,14.68
2019-04-20T19:23:21.098Z,20.80
2019-04-20T19:25:54.513Z,22.20
2019-04-20T19:28:36.806Z,22.98
2019-04-20T19:31:17.715Z,28.92
2019-04-20T19:36:38.313Z,29.10
2019-04-20T19:39:23.573Z,49.00
2019-04-20T19:41:51.672Z,61.65
2019-04-20T19:44:25.041Z,51.45
2019-04-20T19:47:11.375Z,52.78
2019-04-20T19:52:25.286Z,62.03
2019-04-20T19:54:46.627Z,51.80
2019-04-20T19:57:22.089Z,62.10
2019-04-20T19:59:40.489Z,189.85
2019-04-20T20:04:47.096Z,140.68
2019-04-20T20:07:21.969Z,120.40
2019-04-20T20:09:54.835Z,83.47
2019-04-20T20:12:27.401Z,89.72
2019-04-20T20:14:59.536Z,80.15
2019-04-20T20:20:26.094Z,57.62
2019-04-20T20:22:43.505Z,59.60
2019-04-20T20:25:12.790Z,51.10
2019-04-20T20:27:50.337Z,57.20
2019-04-20T20:30:27.994Z,67.00
2019-04-20T20:33:15.009Z,64.75
2019-04-20T20:35:36.753Z,82.20
2019-04-20T20:38:16.660Z,72.82
2019-04-20T20:40:56.587Z,89.70
2019-04-20T20:43:23.096Z,68.52
2019-04-20T20:46:01.130Z,83.67
2019-04-20T20:48:38.854Z,103.42
2019-04-20T20:51:39.318Z,76.65
2019-04-20T20:53:58.593Z,72.35
2019-04-20T20:56:28.959Z,54.80
2019-04-20T20:59:08.993Z,59.75
2019-04-20T21:01:42.500Z,51.83
2019-04-20T21:04:05.066Z,51.95
2019-04-20T21:09:08.493Z,85.87
2019-04-20T21:11:42.187Z,83.35
2019-04-20T21:14:21.050Z,87.45
2019-04-20T21:17:00.715Z,85.90
2019-04-20T21:19:41.760Z,77.85
2019-04-20T21:22:04.903Z,68.12
2019-04-20T21:24:31.687Z,58.33
2019-04-20T21:27:08.796Z,75.12
2019-04-20T21:29:43.538Z,68.45
2019-04-20T21:32:14.261Z,68.45
2019-04-20T21:34:49.176Z,70.30
2019-04-20T21:37:20.105Z,61.50
2019-04-20T21:39:56.117Z,54.18
2019-04-20T21:42:26.709Z,46.45
2019-04-20T21:45:05.864Z,57.55
2019-04-20T21:47:33.798Z,45.05
2019-04-20T21:50:20.333Z,49.48
2019-04-20T21:52:43.050Z,63.52
2019-04-20T21:55:09.966Z,62.83
2019-04-20T21:57:48.568Z,55.20
2019-04-20T22:00:24.998Z,48.17
2019-04-20T22:03:00.265Z,31.00
2019-04-20T22:05:32.553Z,39.20
2019-04-20T22:08:07.844Z,26.25
2019-04-20T22:10:36.694Z,32.00
2019-04-20T22:13:11.869Z,30.32
2019-04-20T22:15:55.987Z,28.98
2019-04-20T22:18:48.366Z,30.35
2019-04-20T22:21:21.723Z,25.20
2019-04-20T22:23:59.766Z,22.65
2019-04-20T22:26:27.737Z,41.55
2019-04-20T22:28:52.176Z,44.33
2019-04-20T22:31:24.295Z,44.55
2019-04-20T22:33:56.443Z,40.98
2019-04-20T22:36:35.535Z,52.90
2019-04-20T22:39:15.890Z,45.83
2019-04-20T22:41:53.663Z,72.87
2019-04-20T22:44:26.699Z,165.92
2019-04-20T22:46:58.581Z,219.37
2019-04-20T22:49:50.164Z,189.07
2019-04-20T22:52:26.220Z,204.87
2019-04-20T22:54:54.369Z,134.85
2019-04-20T22:57:31.901Z,128.20
2019-04-20T22:59:56.895Z,151.85
2019-04-20T23:02:23.079Z,135.40
2019-04-20T23:04:54.940Z,128.53
2019-04-20T23:07:28.494Z,161.12
2019-04-20T23:10:03.091Z,132.10
2019-04-20T23:12:35.649Z,153.30
2019-04-20T23:15:10.146Z,142.85
2019-04-20T23:17:50.123Z,124.02
2019-04-20T23:20:26.709Z,133.82
2019-04-20T23:23:01.246Z,58.95
2019-04-20T23:25:33.431Z,46.58
2019-04-20T23:28:10.116Z,73.72
2019-04-20T23:30:42.343Z,55.67
2019-04-20T23:33:14.032Z,56.73
2019-04-20T23:35:54.211Z,35.83
2019-04-20T23:38:26.462Z,60.10
2019-04-20T23:41:01.783Z,52.30
2019-04-20T23:43:43.039Z,58.78
2019-04-20T23:46:24.709Z,54.55
2019-04-20T23:49:18.749Z,52.45
2019-04-20T23:52:08.570Z,47.30
2019-04-20T23:54:22.018Z,52.73
2019-04-20T23:56:50.326Z,52.90
2019-04-20T23:59:28.964Z,49.10
